Terminal Aerodrome Forecast
Issued by NWS Buffalo, NY

Home | Current Version | Previous Version | Text Only | Print | Product List | Glossary On
Versions: 1 2 3 4 5 6 7 8 9 10 11 12 13 14 15 16 17 18 19 20 21 22 23 24 25 26 27 28
000
FTUS41 KBUF 231100
TAFART
TAF
KART 231122Z 2312/2412 03014G21KT P6SM OVC025
     FM231600 02016G24KT P6SM OVC020
     FM232200 02012KT P6SM BKN020
     FM240100 02009KT P6SM BKN040
     FM240300 02007KT P6SM BKN080
     FM240800 VRB03KT P6SM BKN080=

USA.gov is the U.S. government's official web portal to all federal, state and local government web resources and services.